sensor_id;sensor_type;location;lat;lon;timestamp;temperature;humidity
8595;DHT22;4335;48.860;9.198;2022-11-15T00:01:35;10.00;99.90
8595;DHT22;4335;48.860;9.198;2022-11-15T00:04:03;10.00;99.90
8595;DHT22;4335;48.860;9.198;2022-11-15T00:06:29;9.90;99.90
8595;DHT22;4335;48.860;9.198;2022-11-15T00:08:58;10.00;99.90
8595;DHT22;4335;48.860;9.198;2022-11-15T00:11:24;10.00;99.90
8595;DHT22;4335;48.860;9.198;2022-11-15T00:13:51;9.90;99.90
8595;DHT22;4335;48.860;9.198;2022-11-15T00:16:17;9.90;99.90
8595;DHT22;4335;48.860;9.198;2022-11-15T00:18:43;9.90;99.90
8595;DHT22;4335;48.860;9.198;2022-11-15T00:21:11;9.90;99.90
8595;DHT22;4335;48.860;9.198;2022-11-15T00:23:38;9.90;99.90
8595;DHT22;4335;48.860;9.198;2022-11-15T00:26:04;9.90;99.90
8595;DHT22;4335;48.860;9.198;2022-11-15T00:28:34;9.90;99.90
8595;DHT22;4335;48.860;9.198;2022-11-15T00:31:01;9.90;99.90
8595;DHT22;4335;48.860;9.198;2022-11-15T00:33:28;9.90;99.90
8595;DHT22;4335;48.860;9.198;2022-11-15T00:36:00;9.90;99.90
8595;DHT22;4335;48.860;9.198;2022-11-15T00:38:31;9.90;99.90
8595;DHT22;4335;48.860;9.198;2022-11-15T00:40:59;9.90;99.90
8595;DHT22;4335;48.860;9.198;2022-11-15T00:43:25;9.90;99.90
8595;DHT22;4335;48.860;9.198;2022-11-15T00:45:52;9.90;99.90
8595;DHT22;4335;48.860;9.198;2022-11-15T00:48:19;9.80;99.90
8595;DHT22;4335;48.860;9.198;2022-11-15T00:50:46;9.80;99.90
8595;DHT22;4335;48.860;9.198;2022-11-15T00:53:13;9.80;99.90
8595;DHT22;4335;48.860;9.198;2022-11-15T00:55:39;9.80;99.90
8595;DHT22;4335;48.860;9.198;2022-11-15T00:58:07;9.80;99.90
8595;DHT22;4335;48.860;9.198;2022-11-15T01:00:34;9.80;99.90
8595;DHT22;4335;48.860;9.198;2022-11-15T01:03:00;9.70;99.90
8595;DHT22;4335;48.860;9.198;2022-11-15T01:05:28;9.70;99.90
8595;DHT22;4335;48.860;9.198;2022-11-15T01:07:55;9.70;99.90
8595;DHT22;4335;48.860;9.198;2022-11-15T01:10:22;9.70;99.90
8595;DHT22;4335;48.860;9.198;2022-11-15T01:12:50;9.60;99.90
8595;DHT22;4335;48.860;9.198;2022-11-15T01:15:17;9.60;99.90
8595;DHT22;4335;48.860;9.198;2022-11-15T01:17:44;9.60;99.90
8595;DHT22;4335;48.860;9.198;2022-11-15T01:20:11;9.60;99.90
8595;DHT22;4335;48.860;9.198;2022-11-15T01:22:38;9.60;99.90
8595;DHT22;4335;48.860;9.198;2022-11-15T01:25:05;9.60;99.90
8595;DHT22;4335;48.860;9.198;2022-11-15T01:27:32;9.50;99.90
8595;DHT22;4335;48.860;9.198;2022-11-15T01:29:59;9.50;99.90
8595;DHT22;4335;48.860;9.198;2022-11-15T01:32:26;9.40;99.90
8595;DHT22;4335;48.860;9.198;2022-11-15T01:34:53;9.40;99.90
8595;DHT22;4335;48.860;9.198;2022-11-15T01:37:19;9.30;99.90
8595;DHT22;4335;48.860;9.198;2022-11-15T01:39:49;9.30;99.90
8595;DHT22;4335;48.860;9.198;2022-11-15T01:42:15;9.30;99.90
8595;DHT22;4335;48.860;9.198;2022-11-15T01:44:47;9.20;99.90
8595;DHT22;4335;48.860;9.198;2022-11-15T01:47:16;9.20;99.90
8595;DHT22;4335;48.860;9.198;2022-11-15T01:49:50;9.20;99.90
8595;DHT22;4335;48.860;9.198;2022-11-15T01:52:20;9.10;99.90
8595;DHT22;4335;48.860;9.198;2022-11-15T01:54:49;9.10;99.90
8595;DHT22;4335;48.860;9.198;2022-11-15T01:57:17;9.10;99.90
8595;DHT22;4335;48.860;9.198;2022-11-15T01:59:45;9.00;99.90
8595;DHT22;4335;48.860;9.198;2022-11-15T02:02:12;9.00;99.90
8595;DHT22;4335;48.860;9.198;2022-11-15T02:04:41;9.00;99.90
8595;DHT22;4335;48.860;9.198;2022-11-15T02:07:10;8.90;99.90
8595;DHT22;4335;48.860;9.198;2022-11-15T02:09:38;8.90;99.90
8595;DHT22;4335;48.860;9.198;2022-11-15T02:12:05;9.00;99.90
8595;DHT22;4335;48.860;9.198;2022-11-15T02:14:34;8.90;99.90
8595;DHT22;4335;48.860;9.198;2022-11-15T02:17:08;9.00;99.90
8595;DHT22;4335;48.860;9.198;2022-11-15T02:20:09;9.00;99.90
8595;DHT22;4335;48.860;9.198;2022-11-15T02:23:01;9.00;99.90
8595;DHT22;4335;48.860;9.198;2022-11-15T02:25:39;9.10;99.90
8595;DHT22;4335;48.860;9.198;2022-11-15T02:28:34;9.20;99.90
8595;DHT22;4335;48.860;9.198;2022-11-15T02:31:11;9.20;99.90
8595;DHT22;4335;48.860;9.198;2022-11-15T02:33:48;9.20;99.90
8595;DHT22;4335;48.860;9.198;2022-11-15T02:36:30;9.20;99.90
8595;DHT22;4335;48.860;9.198;2022-11-15T02:39:03;9.20;99.90
8595;DHT22;4335;48.860;9.198;2022-11-15T02:41:39;9.30;99.90
8595;DHT22;4335;48.860;9.198;2022-11-15T02:44:25;9.30;99.90
8595;DHT22;4335;48.860;9.198;2022-11-15T02:47:01;9.30;99.90
8595;DHT22;4335;48.860;9.198;2022-11-15T02:49:43;9.40;99.90
8595;DHT22;4335;48.860;9.198;2022-11-15T02:52:15;9.30;99.90
8595;DHT22;4335;48.860;9.198;2022-11-15T02:54:53;9.30;99.90
8595;DHT22;4335;48.860;9.198;2022-11-15T02:57:29;9.30;99.90
8595;DHT22;4335;48.860;9.198;2022-11-15T03:00:06;9.30;99.90
8595;DHT22;4335;48.860;9.198;2022-11-15T03:02:54;9.20;99.90
8595;DHT22;4335;48.860;9.198;2022-11-15T03:05:28;9.20;99.90
8595;DHT22;4335;48.860;9.198;2022-11-15T03:08:05;9.20;99.90
8595;DHT22;4335;48.860;9.198;2022-11-15T03:10:45;9.20;99.90
8595;DHT22;4335;48.860;9.198;2022-11-15T03:13:23;9.20;99.90
8595;DHT22;4335;48.860;9.198;2022-11-15T03:15:56;9.20;99.90
8595;DHT22;4335;48.860;9.198;2022-11-15T03:18:31;9.10;99.90
8595;DHT22;4335;48.860;9.198;2022-11-15T03:21:01;9.10;99.90
8595;DHT22;4335;48.860;9.198;2022-11-15T03:23:31;9.10;99.90
8595;DHT22;4335;48.860;9.198;2022-11-15T03:26:08;9.00;99.90
8595;DHT22;4335;48.860;9.198;2022-11-15T03:28:38;8.90;99.90
8595;DHT22;4335;48.860;9.198;2022-11-15T03:31:06;8.90;99.90
8595;DHT22;4335;48.860;9.198;2022-11-15T03:33:51;8.80;99.90
8595;DHT22;4335;48.860;9.198;2022-11-15T03:36:21;8.80;99.90
8595;DHT22;4335;48.860;9.198;2022-11-15T03:38:49;8.70;99.90
8595;DHT22;4335;48.860;9.198;2022-11-15T03:41:21;8.70;99.90
8595;DHT22;4335;48.860;9.198;2022-11-15T03:43:54;8.60;99.90
8595;DHT22;4335;48.860;9.198;2022-11-15T03:46:26;8.50;99.90
8595;DHT22;4335;48.860;9.198;2022-11-15T03:49:05;8.50;99.90
8595;DHT22;4335;48.860;9.198;2022-11-15T03:51:40;8.50;99.90
8595;DHT22;4335;48.860;9.198;2022-11-15T03:54:07;8.50;99.90
8595;DHT22;4335;48.860;9.198;2022-11-15T03:56:33;8.60;99.90
8595;DHT22;4335;48.860;9.198;2022-11-15T03:59:06;8.50;99.90
8595;DHT22;4335;48.860;9.198;2022-11-15T04:01:32;8.50;99.90
8595;DHT22;4335;48.860;9.198;2022-11-15T04:03:59;8.50;99.90
8595;DHT22;4335;48.860;9.198;2022-11-15T04:06:30;8.50;99.90
8595;DHT22;4335;48.860;9.198;2022-11-15T04:08:56;8.60;99.90
8595;DHT22;4335;48.860;9.198;2022-11-15T04:11:23;8.60;99.90
8595;DHT22;4335;48.860;9.198;2022-11-15T04:13:50;8.60;99.90
8595;DHT22;4335;48.860;9.198;2022-11-15T04:16:23;8.60;99.90
8595;DHT22;4335;48.860;9.198;2022-11-15T04:18:50;8.60;99.90
8595;DHT22;4335;48.860;9.198;2022-11-15T04:21:32;8.60;99.90
8595;DHT22;4335;48.860;9.198;2022-11-15T04:24:20;8.60;99.90
8595;DHT22;4335;48.860;9.198;2022-11-15T04:26:50;8.60;99.90
8595;DHT22;4335;48.860;9.198;2022-11-15T04:29:16;8.60;99.90
8595;DHT22;4335;48.860;9.198;2022-11-15T04:32:02;8.60;99.90
8595;DHT22;4335;48.860;9.198;2022-11-15T04:34:28;8.60;99.90
8595;DHT22;4335;48.860;9.198;2022-11-15T04:36:56;8.60;99.90
8595;DHT22;4335;48.860;9.198;2022-11-15T04:39:38;8.60;99.90
8595;DHT22;4335;48.860;9.198;2022-11-15T04:42:05;8.60;99.90
8595;DHT22;4335;48.860;9.198;2022-11-15T04:44:31;8.60;99.90
8595;DHT22;4335;48.860;9.198;2022-11-15T04:46:58;8.60;99.90
8595;DHT22;4335;48.860;9.198;2022-11-15T04:49:25;8.60;99.90
8595;DHT22;4335;48.860;9.198;2022-11-15T04:51:55;8.60;99.90
8595;DHT22;4335;48.860;9.198;2022-11-15T04:54:22;8.60;99.90
8595;DHT22;4335;48.860;9.198;2022-11-15T04:56:49;8.60;99.90
8595;DHT22;4335;48.860;9.198;2022-11-15T04:59:15;8.60;99.90
8595;DHT22;4335;48.860;9.198;2022-11-15T05:01:45;8.60;99.90
8595;DHT22;4335;48.860;9.198;2022-11-15T05:04:12;8.50;99.90
8595;DHT22;4335;48.860;9.198;2022-11-15T05:06:53;8.50;99.90
8595;DHT22;4335;48.860;9.198;2022-11-15T05:09:24;8.50;99.90
8595;DHT22;4335;48.860;9.198;2022-11-15T05:11:54;8.40;99.90
8595;DHT22;4335;48.860;9.198;2022-11-15T05:14:20;8.40;99.90
8595;DHT22;4335;48.860;9.198;2022-11-15T05:17:07;8.40;99.90
8595;DHT22;4335;48.860;9.198;2022-11-15T05:19:35;8.50;99.90
8595;DHT22;4335;48.860;9.198;2022-11-15T05:22:02;8.40;99.90
8595;DHT22;4335;48.860;9.198;2022-11-15T05:24:30;8.40;99.90
8595;DHT22;4335;48.860;9.198;2022-11-15T05:27:07;8.30;99.90
8595;DHT22;4335;48.860;9.198;2022-11-15T05:29:33;8.30;99.90
8595;DHT22;4335;48.860;9.198;2022-11-15T05:32:00;8.30;99.90
8595;DHT22;4335;48.860;9.198;2022-11-15T05:34:27;8.40;99.90
8595;DHT22;4335;48.860;9.198;2022-11-15T05:36:54;8.40;99.90
8595;DHT22;4335;48.860;9.198;2022-11-15T05:39:20;8.30;99.90
8595;DHT22;4335;48.860;9.198;2022-11-15T05:41:50;8.30;99.90
8595;DHT22;4335;48.860;9.198;2022-11-15T05:44:22;8.40;99.90
8595;DHT22;4335;48.860;9.198;2022-11-15T05:46:52;8.40;99.90
8595;DHT22;4335;48.860;9.198;2022-11-15T05:49:23;8.40;99.90
8595;DHT22;4335;48.860;9.198;2022-11-15T05:51:54;8.40;99.90
8595;DHT22;4335;48.860;9.198;2022-11-15T05:54:22;8.50;99.90
8595;DHT22;4335;48.860;9.198;2022-11-15T05:56:55;8.40;99.90
8595;DHT22;4335;48.860;9.198;2022-11-15T05:59:25;8.40;99.90
8595;DHT22;4335;48.860;9.198;2022-11-15T06:01:52;8.50;99.90
8595;DHT22;4335;48.860;9.198;2022-11-15T06:04:25;8.50;99.90
8595;DHT22;4335;48.860;9.198;2022-11-15T06:06:54;8.50;99.90
8595;DHT22;4335;48.860;9.198;2022-11-15T06:09:21;8.60;99.90
8595;DHT22;4335;48.860;9.198;2022-11-15T06:11:51;8.50;99.90
8595;DHT22;4335;48.860;9.198;2022-11-15T06:14:18;8.60;99.90
8595;DHT22;4335;48.860;9.198;2022-11-15T06:16:45;8.50;99.90
8595;DHT22;4335;48.860;9.198;2022-11-15T06:19:12;8.60;99.90
8595;DHT22;4335;48.860;9.198;2022-11-15T06:21:38;8.60;99.90
8595;DHT22;4335;48.860;9.198;2022-11-15T06:24:11;8.60;99.90
8595;DHT22;4335;48.860;9.198;2022-11-15T06:26:38;8.60;99.90
8595;DHT22;4335;48.860;9.198;2022-11-15T06:29:05;8.70;99.90
8595;DHT22;4335;48.860;9.198;2022-11-15T06:31:35;8.70;99.90
8595;DHT22;4335;48.860;9.198;2022-11-15T06:34:01;8.70;99.90
8595;DHT22;4335;48.860;9.198;2022-11-15T06:36:28;8.70;99.90
8595;DHT22;4335;48.860;9.198;2022-11-15T06:38:58;8.70;99.90
8595;DHT22;4335;48.860;9.198;2022-11-15T06:41:24;8.70;99.90
8595;DHT22;4335;48.860;9.198;2022-11-15T06:43:51;8.70;99.90
8595;DHT22;4335;48.860;9.198;2022-11-15T06:46:20;8.70;99.90
8595;DHT22;4335;48.860;9.198;2022-11-15T06:48:49;8.80;99.90
8595;DHT22;4335;48.860;9.198;2022-11-15T06:51:16;8.80;99.90
8595;DHT22;4335;48.860;9.198;2022-11-15T06:53:43;8.80;99.90
8595;DHT22;4335;48.860;9.198;2022-11-15T06:56:13;8.80;99.90
8595;DHT22;4335;48.860;9.198;2022-11-15T06:58:39;8.80;99.90
8595;DHT22;4335;48.860;9.198;2022-11-15T07:01:08;8.80;99.90
8595;DHT22;4335;48.860;9.198;2022-11-15T07:03:39;8.80;99.90
8595;DHT22;4335;48.860;9.198;2022-11-15T07:06:11;8.80;99.90
8595;DHT22;4335;48.860;9.198;2022-11-15T07:08:37;8.70;99.90
8595;DHT22;4335;48.860;9.198;2022-11-15T07:11:06;8.70;99.90
8595;DHT22;4335;48.860;9.198;2022-11-15T07:13:34;8.70;99.90
8595;DHT22;4335;48.860;9.198;2022-11-15T07:16:02;8.70;99.90
8595;DHT22;4335;48.860;9.198;2022-11-15T07:18:29;8.80;99.90
8595;DHT22;4335;48.860;9.198;2022-11-15T07:20:59;8.90;99.90
8595;DHT22;4335;48.860;9.198;2022-11-15T07:23:29;8.90;99.90
8595;DHT22;4335;48.860;9.198;2022-11-15T07:25:59;9.00;99.90
8595;DHT22;4335;48.860;9.198;2022-11-15T07:28:26;9.00;99.90
8595;DHT22;4335;48.860;9.198;2022-11-15T07:30:53;9.10;99.90
8595;DHT22;4335;48.860;9.198;2022-11-15T07:33:20;9.10;99.90
8595;DHT22;4335;48.860;9.198;2022-11-15T07:35:47;9.10;99.90
8595;DHT22;4335;48.860;9.198;2022-11-15T07:38:14;9.20;99.90
8595;DHT22;4335;48.860;9.198;2022-11-15T07:40:42;9.30;99.90
8595;DHT22;4335;48.860;9.198;2022-11-15T07:43:15;9.50;99.90
8595;DHT22;4335;48.860;9.198;2022-11-15T07:45:42;9.60;99.90
8595;DHT22;4335;48.860;9.198;2022-11-15T07:48:12;9.80;99.90
8595;DHT22;4335;48.860;9.198;2022-11-15T07:50:41;9.80;99.90
8595;DHT22;4335;48.860;9.198;2022-11-15T07:53:14;10.00;99.90
8595;DHT22;4335;48.860;9.198;2022-11-15T07:55:44;10.10;99.90
8595;DHT22;4335;48.860;9.198;2022-11-15T07:58:13;10.20;99.90
8595;DHT22;4335;48.860;9.198;2022-11-15T08:00:40;10.20;99.90
8595;DHT22;4335;48.860;9.198;2022-11-15T08:03:08;10.30;99.90
8595;DHT22;4335;48.860;9.198;2022-11-15T08:05:38;10.30;99.90
8595;DHT22;4335;48.860;9.198;2022-11-15T08:08:05;10.30;99.90
8595;DHT22;4335;48.860;9.198;2022-11-15T08:10:33;10.40;99.90
8595;DHT22;4335;48.860;9.198;2022-11-15T08:13:02;10.40;99.90
8595;DHT22;4335;48.860;9.198;2022-11-15T08:15:33;10.50;99.90
8595;DHT22;4335;48.860;9.198;2022-11-15T08:18:02;10.50;99.90
8595;DHT22;4335;48.860;9.198;2022-11-15T08:20:30;10.60;99.90
8595;DHT22;4335;48.860;9.198;2022-11-15T08:22:57;10.60;99.90
8595;DHT22;4335;48.860;9.198;2022-11-15T08:25:25;10.70;99.90
8595;DHT22;4335;48.860;9.198;2022-11-15T08:27:52;10.80;99.90
8595;DHT22;4335;48.860;9.198;2022-11-15T08:30:20;10.90;99.90
8595;DHT22;4335;48.860;9.198;2022-11-15T08:32:53;11.00;99.90
8595;DHT22;4335;48.860;9.198;2022-11-15T08:35:20;11.10;99.90
8595;DHT22;4335;48.860;9.198;2022-11-15T08:37:52;11.30;99.90
8595;DHT22;4335;48.860;9.198;2022-11-15T08:40:26;11.40;99.90
8595;DHT22;4335;48.860;9.198;2022-11-15T08:42:53;11.50;99.90
8595;DHT22;4335;48.860;9.198;2022-11-15T08:45:23;11.60;99.90
8595;DHT22;4335;48.860;9.198;2022-11-15T08:47:50;11.60;99.90
8595;DHT22;4335;48.860;9.198;2022-11-15T08:50:17;11.60;99.90
8595;DHT22;4335;48.860;9.198;2022-11-15T08:52:44;11.60;99.90
8595;DHT22;4335;48.860;9.198;2022-11-15T08:55:12;11.60;99.90
8595;DHT22;4335;48.860;9.198;2022-11-15T08:57:39;11.60;99.90
8595;DHT22;4335;48.860;9.198;2022-11-15T09:00:07;11.60;99.90
8595;DHT22;4335;48.860;9.198;2022-11-15T09:02:34;11.60;99.90
8595;DHT22;4335;48.860;9.198;2022-11-15T09:05:04;11.60;99.90
8595;DHT22;4335;48.860;9.198;2022-11-15T09:07:31;11.80;99.90
8595;DHT22;4335;48.860;9.198;2022-11-15T09:09:57;11.70;99.90
8595;DHT22;4335;48.860;9.198;2022-11-15T09:12:30;11.80;99.90
8595;DHT22;4335;48.860;9.198;2022-11-15T09:14:57;11.90;99.90
8595;DHT22;4335;48.860;9.198;2022-11-15T09:17:33;12.10;99.90
8595;DHT22;4335;48.860;9.198;2022-11-15T09:20:02;12.20;99.90
8595;DHT22;4335;48.860;9.198;2022-11-15T09:22:31;12.30;99.90
8595;DHT22;4335;48.860;9.198;2022-11-15T09:24:59;12.40;99.90
8595;DHT22;4335;48.860;9.198;2022-11-15T09:27:27;12.50;99.90
8595;DHT22;4335;48.860;9.198;2022-11-15T09:29:57;12.50;99.90
8595;DHT22;4335;48.860;9.198;2022-11-15T09:32:28;12.60;99.90
8595;DHT22;4335;48.860;9.198;2022-11-15T09:34:55;12.60;99.90
8595;DHT22;4335;48.860;9.198;2022-11-15T09:37:31;12.60;99.90
8595;DHT22;4335;48.860;9.198;2022-11-15T09:39:58;12.80;99.90
8595;DHT22;4335;48.860;9.198;2022-11-15T09:42:51;12.90;99.90
8595;DHT22;4335;48.860;9.198;2022-11-15T09:45:32;13.00;99.90
8595;DHT22;4335;48.860;9.198;2022-11-15T09:50:55;13.30;99.90
8595;DHT22;4335;48.860;9.198;2022-11-15T09:53:34;13.50;99.90
8595;DHT22;4335;48.860;9.198;2022-11-15T09:56:13;13.60;99.90
8595;DHT22;4335;48.860;9.198;2022-11-15T09:58:46;13.70;99.90
8595;DHT22;4335;48.860;9.198;2022-11-15T10:01:20;14.00;99.90
8595;DHT22;4335;48.860;9.198;2022-11-15T10:03:50;14.20;99.90
8595;DHT22;4335;48.860;9.198;2022-11-15T10:06:22;14.30;99.90
8595;DHT22;4335;48.860;9.198;2022-11-15T10:08:58;14.30;99.90
8595;DHT22;4335;48.860;9.198;2022-11-15T10:11:28;14.40;99.90
8595;DHT22;4335;48.860;9.198;2022-11-15T10:13:57;14.50;99.90
8595;DHT22;4335;48.860;9.198;2022-11-15T10:16:51;14.50;99.90
8595;DHT22;4335;48.860;9.198;2022-11-15T10:19:28;14.60;99.90
8595;DHT22;4335;48.860;9.198;2022-11-15T10:22:15;14.60;99.90
8595;DHT22;4335;48.860;9.198;2022-11-15T10:27:36;14.40;99.90
8595;DHT22;4335;48.860;9.198;2022-11-15T10:30:08;14.40;99.90
8595;DHT22;4335;48.860;9.198;2022-11-15T10:32:39;14.40;99.90
8595;DHT22;4335;48.860;9.198;2022-11-15T10:35:17;14.30;99.90
8595;DHT22;4335;48.860;9.198;2022-11-15T10:37:45;14.20;99.90
8595;DHT22;4335;48.860;9.198;2022-11-15T10:40:19;14.20;99.90
8595;DHT22;4335;48.860;9.198;2022-11-15T10:42:47;14.20;99.90
8595;DHT22;4335;48.860;9.198;2022-11-15T10:45:28;14.10;99.90
8595;DHT22;4335;48.860;9.198;2022-11-15T10:48:24;14.10;99.90
8595;DHT22;4335;48.860;9.198;2022-11-15T10:50:54;14.00;99.90
8595;DHT22;4335;48.860;9.198;2022-11-15T10:53:27;14.00;99.90
8595;DHT22;4335;48.860;9.198;2022-11-15T10:56:00;14.00;99.90
8595;DHT22;4335;48.860;9.198;2022-11-15T10:58:36;13.90;99.90
8595;DHT22;4335;48.860;9.198;2022-11-15T11:01:15;13.90;99.90
8595;DHT22;4335;48.860;9.198;2022-11-15T11:03:44;13.90;99.90
8595;DHT22;4335;48.860;9.198;2022-11-15T11:06:13;13.90;99.90
8595;DHT22;4335;48.860;9.198;2022-11-15T11:08:40;13.90;99.90
8595;DHT22;4335;48.860;9.198;2022-11-15T11:11:08;13.80;99.90
8595;DHT22;4335;48.860;9.198;2022-11-15T11:13:36;13.80;99.90
8595;DHT22;4335;48.860;9.198;2022-11-15T11:19:35;13.80;99.90
8595;DHT22;4335;48.860;9.198;2022-11-15T11:22:12;13.80;99.90
8595;DHT22;4335;48.860;9.198;2022-11-15T11:24:47;13.80;99.90
8595;DHT22;4335;48.860;9.198;2022-11-15T11:27:30;13.70;99.90
8595;DHT22;4335;48.860;9.198;2022-11-15T11:30:06;13.70;99.90
8595;DHT22;4335;48.860;9.198;2022-11-15T11:35:46;13.80;99.90
8595;DHT22;4335;48.860;9.198;2022-11-15T11:38:51;13.80;99.90
8595;DHT22;4335;48.860;9.198;2022-11-15T11:41:29;13.90;99.90
8595;DHT22;4335;48.860;9.198;2022-11-15T11:44:17;13.90;99.90
8595;DHT22;4335;48.860;9.198;2022-11-15T11:46:51;14.00;99.90
8595;DHT22;4335;48.860;9.198;2022-11-15T11:49:27;14.10;99.90
8595;DHT22;4335;48.860;9.198;2022-11-15T11:51:58;14.10;99.90
8595;DHT22;4335;48.860;9.198;2022-11-15T11:54:36;14.20;99.90
8595;DHT22;4335;48.860;9.198;2022-11-15T11:57:12;14.30;99.90
8595;DHT22;4335;48.860;9.198;2022-11-15T11:59:45;14.40;99.90
8595;DHT22;4335;48.860;9.198;2022-11-15T12:02:34;14.60;99.90
8595;DHT22;4335;48.860;9.198;2022-11-15T12:05:13;14.60;99.90
8595;DHT22;4335;48.860;9.198;2022-11-15T12:07:41;14.80;99.90
8595;DHT22;4335;48.860;9.198;2022-11-15T12:10:19;14.70;99.90
8595;DHT22;4335;48.860;9.198;2022-11-15T12:12:55;14.80;99.90
8595;DHT22;4335;48.860;9.198;2022-11-15T12:15:27;14.80;99.90
8595;DHT22;4335;48.860;9.198;2022-11-15T12:17:57;14.80;99.90
8595;DHT22;4335;48.860;9.198;2022-11-15T12:20:32;14.90;99.90
8595;DHT22;4335;48.860;9.198;2022-11-15T12:23:03;14.90;99.90
8595;DHT22;4335;48.860;9.198;2022-11-15T12:25:39;14.80;99.90
8595;DHT22;4335;48.860;9.198;2022-11-15T12:28:13;14.80;99.90
8595;DHT22;4335;48.860;9.198;2022-11-15T12:30:45;14.90;99.90
8595;DHT22;4335;48.860;9.198;2022-11-15T12:33:34;14.80;99.90
8595;DHT22;4335;48.860;9.198;2022-11-15T12:36:03;14.80;99.90
8595;DHT22;4335;48.860;9.198;2022-11-15T12:39:04;14.80;99.90
8595;DHT22;4335;48.860;9.198;2022-11-15T12:41:35;14.80;99.90
8595;DHT22;4335;48.860;9.198;2022-11-15T12:44:03;14.70;99.90
8595;DHT22;4335;48.860;9.198;2022-11-15T12:47:00;14.60;99.90
8595;DHT22;4335;48.860;9.198;2022-11-15T12:49:46;14.60;99.90
8595;DHT22;4335;48.860;9.198;2022-11-15T12:52:13;14.60;99.90
8595;DHT22;4335;48.860;9.198;2022-11-15T12:55:02;14.50;99.90
8595;DHT22;4335;48.860;9.198;2022-11-15T12:57:47;14.50;99.90
8595;DHT22;4335;48.860;9.198;2022-11-15T13:00:44;14.40;99.90
8595;DHT22;4335;48.860;9.198;2022-11-15T13:03:19;14.40;99.90
8595;DHT22;4335;48.860;9.198;2022-11-15T13:06:34;14.40;99.90
8595;DHT22;4335;48.860;9.198;2022-11-15T13:09:03;14.30;99.90
8595;DHT22;4335;48.860;9.198;2022-11-15T13:11:50;14.30;99.90
8595;DHT22;4335;48.860;9.198;2022-11-15T13:14:41;14.30;99.90
8595;DHT22;4335;48.860;9.198;2022-11-15T13:17:27;14.30;99.90
8595;DHT22;4335;48.860;9.198;2022-11-15T13:22:48;14.30;99.90
8595;DHT22;4335;48.860;9.198;2022-11-15T13:25:22;14.30;99.90
8595;DHT22;4335;48.860;9.198;2022-11-15T13:27:54;14.20;99.90
8595;DHT22;4335;48.860;9.198;2022-11-15T13:30:25;14.20;99.90
8595;DHT22;4335;48.860;9.198;2022-11-15T13:32:52;14.10;99.90
8595;DHT22;4335;48.860;9.198;2022-11-15T13:35:22;14.20;99.90
8595;DHT22;4335;48.860;9.198;2022-11-15T13:37:50;14.20;99.90
8595;DHT22;4335;48.860;9.198;2022-11-15T13:40:35;14.10;99.90
8595;DHT22;4335;48.860;9.198;2022-11-15T13:43:29;14.10;99.90
8595;DHT22;4335;48.860;9.198;2022-11-15T13:46:11;14.10;99.90
8595;DHT22;4335;48.860;9.198;2022-11-15T13:48:38;14.00;99.90
8595;DHT22;4335;48.860;9.198;2022-11-15T13:51:09;14.00;99.90
8595;DHT22;4335;48.860;9.198;2022-11-15T13:53:41;14.00;99.90
8595;DHT22;4335;48.860;9.198;2022-11-15T13:56:11;14.00;99.90
8595;DHT22;4335;48.860;9.198;2022-11-15T13:58:39;13.90;99.90
8595;DHT22;4335;48.860;9.198;2022-11-15T14:01:16;13.80;99.90
8595;DHT22;4335;48.860;9.198;2022-11-15T14:03:51;13.90;99.90
8595;DHT22;4335;48.860;9.198;2022-11-15T14:06:20;14.00;99.90
8595;DHT22;4335;48.860;9.198;2022-11-15T14:09:30;13.90;99.90
8595;DHT22;4335;48.860;9.198;2022-11-15T14:12:19;13.80;99.90
8595;DHT22;4335;48.860;9.198;2022-11-15T14:14:50;13.90;99.90
8595;DHT22;4335;48.860;9.198;2022-11-15T14:17:21;13.80;99.90
8595;DHT22;4335;48.860;9.198;2022-11-15T14:19:49;13.80;99.90
8595;DHT22;4335;48.860;9.198;2022-11-15T14:22:20;13.70;99.90
8595;DHT22;4335;48.860;9.198;2022-11-15T14:25:07;13.60;99.90
8595;DHT22;4335;48.860;9.198;2022-11-15T14:27:40;13.60;99.90
8595;DHT22;4335;48.860;9.198;2022-11-15T14:30:13;13.50;99.90
8595;DHT22;4335;48.860;9.198;2022-11-15T14:32:44;13.50;99.90
8595;DHT22;4335;48.860;9.198;2022-11-15T14:35:15;13.40;99.90
8595;DHT22;4335;48.860;9.198;2022-11-15T14:37:42;13.30;99.90
8595;DHT22;4335;48.860;9.198;2022-11-15T14:40:12;13.30;99.90
8595;DHT22;4335;48.860;9.198;2022-11-15T14:42:39;13.20;99.90
8595;DHT22;4335;48.860;9.198;2022-11-15T14:45:11;13.20;99.90
8595;DHT22;4335;48.860;9.198;2022-11-15T14:47:42;13.20;99.90
8595;DHT22;4335;48.860;9.198;2022-11-15T14:50:13;13.10;99.90
8595;DHT22;4335;48.860;9.198;2022-11-15T14:52:40;13.10;99.90
8595;DHT22;4335;48.860;9.198;2022-11-15T14:55:17;13.10;99.90
8595;DHT22;4335;48.860;9.198;2022-11-15T14:57:45;13.10;99.90
8595;DHT22;4335;48.860;9.198;2022-11-15T15:00:13;13.10;99.90
8595;DHT22;4335;48.860;9.198;2022-11-15T15:02:41;13.10;99.90
8595;DHT22;4335;48.860;9.198;2022-11-15T15:05:19;13.00;99.90
8595;DHT22;4335;48.860;9.198;2022-11-15T15:07:50;13.00;99.90
8595;DHT22;4335;48.860;9.198;2022-11-15T15:10:19;13.00;99.90
8595;DHT22;4335;48.860;9.198;2022-11-15T15:12:46;13.00;99.90
8595;DHT22;4335;48.860;9.198;2022-11-15T15:15:13;12.90;99.90
8595;DHT22;4335;48.860;9.198;2022-11-15T15:17:41;12.90;99.90
8595;DHT22;4335;48.860;9.198;2022-11-15T15:20:08;13.00;99.90
8595;DHT22;4335;48.860;9.198;2022-11-15T15:22:36;12.80;99.90
8595;DHT22;4335;48.860;9.198;2022-11-15T15:25:07;12.90;99.90
8595;DHT22;4335;48.860;9.198;2022-11-15T15:27:37;12.90;99.90
8595;DHT22;4335;48.860;9.198;2022-11-15T15:30:04;12.80;99.90
8595;DHT22;4335;48.860;9.198;2022-11-15T15:32:31;12.80;99.90
8595;DHT22;4335;48.860;9.198;2022-11-15T15:35:01;12.80;99.90
8595;DHT22;4335;48.860;9.198;2022-11-15T15:37:29;12.80;99.90
8595;DHT22;4335;48.860;9.198;2022-11-15T15:39:59;12.70;99.90
8595;DHT22;4335;48.860;9.198;2022-11-15T15:42:29;12.70;99.90
8595;DHT22;4335;48.860;9.198;2022-11-15T15:44:55;12.70;99.90
8595;DHT22;4335;48.860;9.198;2022-11-15T15:47:23;12.60;99.90
8595;DHT22;4335;48.860;9.198;2022-11-15T15:49:51;12.60;99.90
8595;DHT22;4335;48.860;9.198;2022-11-15T15:52:18;12.50;99.90
8595;DHT22;4335;48.860;9.198;2022-11-15T15:54:45;12.50;99.90
8595;DHT22;4335;48.860;9.198;2022-11-15T15:57:13;12.40;99.90
8595;DHT22;4335;48.860;9.198;2022-11-15T15:59:40;12.40;99.90
8595;DHT22;4335;48.860;9.198;2022-11-15T16:02:09;12.40;99.90
8595;DHT22;4335;48.860;9.198;2022-11-15T16:04:37;12.40;99.90
8595;DHT22;4335;48.860;9.198;2022-11-15T16:07:04;12.40;99.90
8595;DHT22;4335;48.860;9.198;2022-11-15T16:09:31;12.30;99.90
8595;DHT22;4335;48.860;9.198;2022-11-15T16:12:21;12.30;99.90
8595;DHT22;4335;48.860;9.198;2022-11-15T16:14:51;12.30;99.90
8595;DHT22;4335;48.860;9.198;2022-11-15T16:17:23;12.30;99.90
8595;DHT22;4335;48.860;9.198;2022-11-15T16:19:51;12.20;99.90
8595;DHT22;4335;48.860;9.198;2022-11-15T16:22:17;12.30;99.90
8595;DHT22;4335;48.860;9.198;2022-11-15T16:24:47;12.30;99.90
8595;DHT22;4335;48.860;9.198;2022-11-15T16:27:15;12.30;99.90
8595;DHT22;4335;48.860;9.198;2022-11-15T16:29:43;12.30;99.90
8595;DHT22;4335;48.860;9.198;2022-11-15T16:32:10;12.30;99.90
8595;DHT22;4335;48.860;9.198;2022-11-15T16:34:37;12.30;99.90
8595;DHT22;4335;48.860;9.198;2022-11-15T16:37:04;12.40;99.90
8595;DHT22;4335;48.860;9.198;2022-11-15T16:39:33;12.40;99.90
8595;DHT22;4335;48.860;9.198;2022-11-15T16:42:00;12.30;99.90
8595;DHT22;4335;48.860;9.198;2022-11-15T16:44:28;12.40;99.90
8595;DHT22;4335;48.860;9.198;2022-11-15T16:46:55;12.30;99.90
8595;DHT22;4335;48.860;9.198;2022-11-15T16:49:22;12.40;99.90
8595;DHT22;4335;48.860;9.198;2022-11-15T16:51:49;12.40;99.90
8595;DHT22;4335;48.860;9.198;2022-11-15T16:54:16;12.30;99.90